ePrivacy and GPDR Cookie Consent by Cookie Consent
EmailTwitter


Surface observations / Quebec / CYUL (71627)

Regions: Quebec | Canada | USA | Europe | France | UK | Elsewhere
Station
Display
Info & Location for CYUL (71627) | Help decoding METAR

Weather Conditions observed on 2021/12/09 at 01:00 UTC at MONTREAL INTL A, QB (CYUL)

Sky conditions: overcast.

Obstruction(s) to Vision: light snow.

Temperature: -10.0 Celsius.

Dewpoint: -12.0 Celsius.

Relative Humidity: 85%

Windchill Factor -18.

Winds: North-northeast at 22 km/h or 12 knots.

Mean Sea level Pressure: 101.61 kilopascals.

Altimeter Setting (QNH): 101.56 kilopascals or 29.99 inches of mercury.

Horizontal visibility: 15.00 statute miles or 24.00 kilometers.

Height of the Ceiling: 579 metres ( 1900 feet ).

Coded METAR:

CYUL 090100Z 02012KT 15SM -SN FEW008 BKN019 OVC060 M10/M12 A2999 RMK SF1SC7SC1

SF TR SLP161=